Time;durP1;ratioP1;P1;durP2;ratioP2;P2;SDS_P1;SDS_P2;PMS_P1;PMS_P2;Temp;Humidity;BMP_temperature;BMP_pressure;BME280_temperature;BME280_humidity;BME280_pressure;Samples;Min_cycle;Max_cycle;Signal;HPM_P1;HPM_P2
2023/03/15 00:01:49;;;;;;;;;;;;;;;-142.75;100.00;77779.13;5054065;28;19913;-65
2023/03/15 00:04:14;;;;;;;;;;;;;;;-142.75;100.00;77773.22;5052559;28;19972;-67
2023/03/15 00:06:40;;;;;;;;;;;;;;;-142.75;100.00;77771.25;5054241;28;19943;-66
2023/03/15 00:09:05;;;;;;;;;;;;;;;-142.75;100.00;77796.84;5054057;28;20451;-67
2023/03/15 00:11:30;;;;;;;;;;;;;;;-142.75;100.00;77806.69;5054077;28;20011;-66
2023/03/15 00:13:56;;;;;;;;;;;;;;;-142.75;100.00;77824.41;5052642;28;19952;-66
2023/03/15 00:16:25;;;;;;;;;;;;;;;-142.75;100.00;77846.06;5054065;28;19913;-68
2023/03/15 00:18:51;;;;;;;;;;;;;;;-142.75;100.00;77840.16;5053937;28;19912;-66
2023/03/15 00:21:16;;;;;;;;;;;;;;;-142.75;100.00;77855.91;5053904;28;19912;-67
2023/03/15 00:23:41;;;;;;;;;;;;;;;-142.75;100.00;77853.94;5053780;28;19920;-66
2023/03/15 00:26:06;;;;;;;;;;;;;;;-142.75;100.00;77855.91;5053717;28;19924;-66
2023/03/15 00:28:31;;;;;;;;;;;;;;;-142.75;100.00;77838.19;5052928;28;20292;-66
2023/03/15 00:31:13;;;;;;;;;;;;;;;-142.75;100.00;77826.38;5053620;28;19912;-67
2023/03/15 00:33:40;;;;;;;;;;;;;;;-142.75;100.00;77861.81;5053581;28;20411;-66
2023/03/15 00:36:06;;;;;;;;;;;;;;;-142.75;100.00;77859.84;5053764;28;19958;-67
2023/03/15 00:38:32;;;;;;;;;;;;;;;-142.75;100.00;77885.44;5053596;28;19995;-66
2023/03/15 00:40:58;;;;;;;;;;;;;;;-142.75;100.00;77893.31;5053542;28;20404;-67
2023/03/15 00:43:23;;;;;;;;;;;;;;;-142.75;100.00;77885.44;5053439;28;19916;-67
2023/03/15 00:45:48;;;;;;;;;;;;;;;-142.75;100.00;77885.44;5053378;28;19913;-66
2023/03/15 00:48:13;;;;;;;;;;;;;;;-142.75;100.00;77891.34;5053225;28;19995;-66
2023/03/15 00:50:39;;;;;;;;;;;;;;;-142.75;100.00;77897.25;5053332;28;19913;-66
2023/03/15 00:53:04;;;;;;;;;;;;;;;-142.75;100.00;77903.16;5053200;28;19913;-66
2023/03/15 00:55:29;;;;;;;;;;;;;;;-142.75;100.00;77897.25;5053274;28;19917;-66
2023/03/15 00:57:55;;;;;;;;;;;;;;;-142.75;100.00;77915.00;5053209;28;19912;-66
2023/03/15 01:00:23;;;;;;;;;;;;;;;-142.75;100.00;77909.06;5051788;28;19913;-67
2023/03/15 01:02:48;;;;;;;;;;;;;;;-142.75;100.00;77922.88;5053010;28;19913;-66
2023/03/15 01:05:14;;;;;;;;;;;;;;;-142.75;100.00;77936.66;5052910;28;19943;-66
2023/03/15 01:07:39;;;;;;;;;;;;;;;-142.75;100.00;77924.84;5052936;28;19967;-66
2023/03/15 01:10:05;;;;;;;;;;;;;;;-142.75;100.00;77950.44;5052946;28;20003;-66
2023/03/15 01:12:32;;;;;;;;;;;;;;;-142.75;100.00;77952.41;5052920;28;19916;-66
2023/03/15 01:14:57;;;;;;;;;;;;;;;-142.75;100.00;77928.78;5052773;28;19916;-67
2023/03/15 01:17:22;;;;;;;;;;;;;;;-142.75;100.00;77932.72;5051516;28;19932;-66
2023/03/15 01:19:47;;;;;;;;;;;;;;;-142.75;100.00;77920.91;5052759;28;19920;-67
2023/03/15 01:22:13;;;;;;;;;;;;;;;-142.75;100.00;77924.84;5052700;28;20062;-65
2023/03/15 01:24:38;;;;;;;;;;;;;;;-142.75;100.00;77944.53;5051514;28;19913;-67
2023/03/15 01:27:03;;;;;;;;;;;;;;;-142.75;100.00;77944.53;5052692;28;19917;-66
2023/03/15 01:29:28;;;;;;;;;;;;;;;-142.75;100.00;77946.50;5052434;28;19919;-66
2023/03/15 01:31:54;;;;;;;;;;;;;;;-142.75;100.00;77958.31;5051120;28;19913;-67
2023/03/15 01:34:20;;;;;;;;;;;;;;;-142.75;100.00;77964.22;5052571;28;20449;-67
2023/03/15 01:36:48;;;;;;;;;;;;;;;-142.75;100.00;77956.34;5051366;28;20398;-67
2023/03/15 01:39:13;;;;;;;;;;;;;;;-142.75;100.00;77968.16;5052249;28;19913;-66
2023/03/15 01:41:38;;;;;;;;;;;;;;;-142.75;100.00;77993.75;5051063;28;20015;-68
2023/03/15 01:44:03;;;;;;;;;;;;;;;-142.75;100.00;77999.66;5052246;28;19923;-66
2023/03/15 01:46:33;;;;;;;;;;;;;;;-142.75;100.00;77983.91;5051145;28;20310;-66
2023/03/15 01:49:16;;;;;;;;;;;;;;;-142.75;100.00;77995.72;5052821;28;19923;-67
2023/03/15 01:51:45;;;;;;;;;;;;;;;-142.75;100.00;78011.47;5050953;28;19913;-66
2023/03/15 01:54:22;;;;;;;;;;;;;;;-142.75;100.00;78013.44;5051035;28;19916;-66
2023/03/15 01:57:03;;;;;;;;;;;;;;;-142.75;100.00;78039.03;5052286;28;19966;-67
2023/03/15 01:59:33;;;;;;;;;;;;;;;-142.75;100.00;78042.97;5050881;28;20391;-67
2023/03/15 02:01:59;;;;;;;;;;;;;;;-142.75;100.00;78019.34;5052021;28;20003;-66
2023/03/15 02:04:28;;;;;;;;;;;;;;;-142.75;100.00;78033.13;5050858;28;20384;-66
2023/03/15 02:06:58;;;;;;;;;;;;;;;-142.75;100.00;78025.25;5050786;28;19917;-68
2023/03/15 02:09:26;;;;;;;;;;;;;;;-142.75;100.00;78021.31;5050786;28;20387;-66
2023/03/15 02:11:52;;;;;;;;;;;;;;;-142.75;100.00;78033.13;5051852;28;20585;-66
2023/03/15 02:14:17;;;;;;;;;;;;;;;-142.75;100.00;78023.28;5050679;28;20047;-66
2023/03/15 02:16:43;;;;;;;;;;;;;;;-142.75;100.00;78019.34;5052014;28;19912;-68
2023/03/15 02:19:10;;;;;;;;;;;;;;;-142.75;100.00;78035.09;5051942;28;20008;-67
2023/03/15 02:21:56;;;;;;;;;;;;;;;-142.75;100.00;78042.97;5051799;28;19919;-67
2023/03/15 02:24:43;;;;;;;;;;;;;;;-142.75;100.00;78052.81;5010838;28;19921;-66
2023/03/15 02:27:08;;;;;;;;;;;;;;;-142.75;100.00;78054.81;5038498;28;19913;-67
2023/03/15 02:29:33;;;;;;;;;;;;;;;-142.75;100.00;78062.69;5051727;28;19924;-67
2023/03/15 02:31:58;;;;;;;;;;;;;;;-142.75;100.00;78062.69;5051665;28;20007;-66
2023/03/15 02:34:24;;;;;;;;;;;;;;;-142.75;100.00;78058.72;5051818;28;19967;-66
2023/03/15 02:36:50;;;;;;;;;;;;;;;-142.75;100.00;78058.72;5051909;28;19913;-66
2023/03/15 02:39:16;;;;;;;;;;;;;;;-142.75;100.00;78066.63;5050493;28;20368;-64
2023/03/15 02:41:44;;;;;;;;;;;;;;;-142.75;100.00;78066.63;5050431;28;20015;-67
2023/03/15 02:44:18;;;;;;;;;;;;;;;-142.75;100.00;78052.81;5050328;28;20383;-66
2023/03/15 02:46:45;;;;;;;;;;;;;;;-142.75;100.00;78052.81;5050546;28;19916;-66
2023/03/15 02:49:10;;;;;;;;;;;;;;;-142.75;100.00;78044.94;5051586;28;20572;-66
2023/03/15 02:51:36;;;;;;;;;;;;;;;-142.75;100.00;78056.78;5054649;28;19917;-66
2023/03/15 02:54:01;;;;;;;;;;;;;;;-142.75;100.00;78056.78;5053746;28;20388;-66
2023/03/15 02:56:26;;;;;;;;;;;;;;;-142.75;100.00;78048.88;5055607;28;20380;-66
2023/03/15 02:58:51;;;;;;;;;;;;;;;-142.75;100.00;78054.81;5055420;28;20011;-66
2023/03/15 03:01:18;;;;;;;;;;;;;;;-142.75;100.00;78066.63;5055355;28;19975;-67
2023/03/15 03:03:44;;;;;;;;;;;;;;;-142.75;100.00;78070.56;5070721;28;19912;-68
2023/03/15 03:06:10;;;;;;;;;;;;;;;-142.75;100.00;78068.59;5055383;28;19919;-67
2023/03/15 03:08:36;;;;;;;;;;;;;;;-142.75;100.00;78072.53;5055286;28;20008;-67
2023/03/15 03:11:01;;;;;;;;;;;;;;;-142.75;100.00;78094.19;5070631;28;19913;-66
2023/03/15 03:13:26;;;;;;;;;;;;;;;-142.75;100.00;78092.22;5055062;28;20308;-66
2023/03/15 03:15:57;;;;;;;;;;;;;;;-142.75;100.00;78113.88;5070609;28;19917;-67
2023/03/15 03:18:29;;;;;;;;;;;;;;;-142.75;100.00;78090.25;5055216;28;20003;-66
2023/03/15 03:20:55;;;;;;;;;;;;;;;-142.75;100.00;78102.06;5055008;28;19983;-66
2023/03/15 03:23:24;;;;;;;;;;;;;;;-142.75;100.00;78106.00;5045675;28;19971;-67
2023/03/15 03:25:49;;;;;;;;;;;;;;;-142.75;100.00;78102.06;5035183;28;19913;-66
2023/03/15 03:28:15;;;;;;;;;;;;;;;-142.75;100.00;78098.13;5034826;28;19913;-66
2023/03/15 03:30:40;;;;;;;;;;;;;;;-142.75;100.00;78102.06;5034940;28;19953;-66
2023/03/15 03:33:05;;;;;;;;;;;;;;;-142.75;100.00;78121.75;5033608;28;20355;-66
2023/03/15 03:35:30;;;;;;;;;;;;;;;-142.75;100.00;78141.44;5034868;28;19923;-66
2023/03/15 03:37:56;;;;;;;;;;;;;;;-142.75;100.00;78145.38;5034695;28;19913;-66
2023/03/15 03:40:21;;;;;;;;;;;;;;;-142.75;100.00;78159.16;5034819;28;19914;-67
2023/03/15 03:42:46;;;;;;;;;;;;;;;-142.75;100.00;78167.03;5034665;28;19913;-66
2023/03/15 03:45:11;;;;;;;;;;;;;;;-142.75;100.00;78172.94;5034807;28;20285;-66
2023/03/15 03:47:36;;;;;;;;;;;;;;;-142.75;100.00;78188.72;5033245;28;20380;-66
2023/03/15 03:50:02;;;;;;;;;;;;;;;-142.75;100.00;78222.19;5034580;28;19920;-67
2023/03/15 03:52:27;;;;;;;;;;;;;;;-142.75;100.00;78230.06;5033279;28;19920;-65
2023/03/15 03:54:52;;;;;;;;;;;;;;;-142.75;100.00;78228.09;5034522;28;19917;-67
2023/03/15 03:57:17;;;;;;;;;;;;;;;-142.75;100.00;78235.97;5033063;28;19917;-65
2023/03/15 03:59:43;;;;;;;;;;;;;;;-142.75;100.00;78226.13;5034438;28;19917;-66
2023/03/15 04:02:08;;;;;;;;;;;;;;;-142.75;100.00;78216.28;5034128;28;19913;-66
2023/03/15 04:04:33;;;;;;;;;;;;;;;-142.75;100.00;78208.41;5034412;28;19925;-67
2023/03/15 04:06:58;;;;;;;;;;;;;;;-142.75;100.00;78184.78;5034313;28;19913;-68
2023/03/15 04:09:24;;;;;;;;;;;;;;;-142.75;100.00;78188.72;5034264;28;19920;-67
2023/03/15 04:11:49;;;;;;;;;;;;;;;-142.75;100.00;78151.28;5034061;28;20395;-67
2023/03/15 04:14:14;;;;;;;;;;;;;;;-142.75;100.00;78165.06;5032716;28;19917;-66
2023/03/15 04:16:40;;;;;;;;;;;;;;;-142.75;100.00;78188.72;5034294;28;19944;-66
2023/03/15 04:19:06;;;;;;;;;;;;;;;-142.75;100.00;78192.66;5034106;28;20395;-66
2023/03/15 04:21:31;;;;;;;;;;;;;;;-142.75;100.00;78176.88;5033990;28;19917;-66
2023/03/15 04:23:58;;;;;;;;;;;;;;;-142.75;100.00;78155.22;5033939;28;20050;-66
2023/03/15 04:26:25;;;;;;;;;;;;;;;-142.75;100.00;78176.88;5033974;28;19913;-66
2023/03/15 04:28:50;;;;;;;;;;;;;;;-142.75;100.00;78184.78;5033798;28;19978;-66
2023/03/15 04:31:15;;;;;;;;;;;;;;;-142.75;100.00;78194.63;5033800;28;20373;-66
2023/03/15 04:33:41;;;;;;;;;;;;;;;-142.75;100.00;78196.59;5033700;28;19921;-66
2023/03/15 04:36:06;;;;;;;;;;;;;;;-142.75;100.00;78210.38;5033813;28;19924;-66
2023/03/15 04:38:34;;;;;;;;;;;;;;;-142.75;100.00;78222.19;5032411;28;19913;-66
2023/03/15 04:40:59;;;;;;;;;;;;;;;-142.75;100.00;78220.22;5033599;28;19913;-66
2023/03/15 04:43:24;;;;;;;;;;;;;;;-142.75;100.00;78204.47;5033133;28;19928;-66
2023/03/15 04:45:50;;;;;;;;;;;;;;;-142.75;100.00;78206.44;5033573;28;19913;-66
2023/03/15 04:48:15;;;;;;;;;;;;;;;-142.75;100.00;78243.84;5033329;28;19917;-66
2023/03/15 04:50:41;;;;;;;;;;;;;;;-142.75;100.00;78235.97;5033495;28;19920;-66
2023/03/15 04:53:06;;;;;;;;;;;;;;;-142.75;100.00;78239.91;5033369;28;19916;-66
2023/03/15 04:55:31;;;;;;;;;;;;;;;-142.75;100.00;78235.97;5033308;28;20004;-67
2023/03/15 04:57:57;;;;;;;;;;;;;;;-142.75;100.00;78257.63;5033262;28;20007;-66
2023/03/15 05:00:22;;;;;;;;;;;;;;;-142.75;100.00;78241.88;5031823;28;19913;-66
2023/03/15 05:02:53;;;;;;;;;;;;;;;-142.75;100.00;78245.81;5031921;28;19959;-66
2023/03/15 05:05:19;;;;;;;;;;;;;;;-142.75;100.00;78257.63;5033242;28;20004;-67
2023/03/15 05:07:44;;;;;;;;;;;;;;;-142.75;100.00;78220.22;5031829;28;20028;-66
2023/03/15 05:10:10;;;;;;;;;;;;;;;-142.75;100.00;78230.06;5033001;28;19913;-66
2023/03/15 05:12:35;;;;;;;;;;;;;;;-142.75;100.00;78206.44;5031277;28;19913;-66
2023/03/15 05:15:00;;;;;;;;;;;;;;;-142.75;100.00;78204.47;5032754;28;19917;-66
2023/03/15 05:17:26;;;;;;;;;;;;;;;-142.75;100.00;78241.88;5032937;28;19917;-66
2023/03/15 05:19:51;;;;;;;;;;;;;;;-142.75;100.00;78265.50;5032863;28;19952;-67
2023/03/15 05:22:17;;;;;;;;;;;;;;;-142.75;100.00;78269.44;5032748;28;19963;-65
2023/03/15 05:24:42;;;;;;;;;;;;;;;-142.75;100.00;78241.88;5032823;28;20007;-65
2023/03/15 05:27:08;;;;;;;;;;;;;;;-142.75;100.00;78251.72;5031593;28;19919;-66
2023/03/15 05:29:33;;;;;;;;;;;;;;;-142.75;100.00;78235.97;5032731;28;19917;-66
2023/03/15 05:31:58;;;;;;;;;;;;;;;-142.75;100.00;78251.72;5032482;28;19913;-65
2023/03/15 05:34:23;;;;;;;;;;;;;;;-142.75;100.00;78265.50;5031524;28;19970;-67
2023/03/15 05:36:50;;;;;;;;;;;;;;;-142.75;100.00;78241.88;5032853;28;19920;-66
2023/03/15 05:39:15;;;;;;;;;;;;;;;-142.75;100.00;78241.88;5032567;28;19928;-65
2023/03/15 05:41:41;;;;;;;;;;;;;;;-142.75;100.00;78245.81;5032558;28;19913;-67
2023/03/15 05:44:06;;;;;;;;;;;;;;;-142.75;100.00;78263.53;5031087;28;19917;-68
2023/03/15 05:46:31;;;;;;;;;;;;;;;-142.75;100.00;78287.16;5032544;28;19913;-66
2023/03/15 05:48:56;;;;;;;;;;;;;;;-142.75;100.00;78281.25;5031020;28;20423;-67
2023/03/15 05:51:22;;;;;;;;;;;;;;;-142.75;100.00;78291.09;5032374;28;19913;-66
2023/03/15 05:53:47;;;;;;;;;;;;;;;-142.75;100.00;78287.16;5032250;28;19963;-65
2023/03/15 05:56:12;;;;;;;;;;;;;;;-142.75;100.00;78287.16;5032339;28;19920;-66
2023/03/15 05:58:37;;;;;;;;;;;;;;;-142.75;100.00;78261.56;5032121;28;20392;-66
2023/03/15 06:01:03;;;;;;;;;;;;;;;-142.75;100.00;78275.34;5030975;28;19917;-66
2023/03/15 06:03:30;;;;;;;;;;;;;;;-142.75;100.00;78291.09;5032136;28;20372;-66
2023/03/15 06:05:55;;;;;;;;;;;;;;;-142.75;100.00;78306.88;5030936;28;19920;-66
2023/03/15 06:08:20;;;;;;;;;;;;;;;-142.75;100.00;78291.09;5032133;28;19913;-67
2023/03/15 06:10:46;;;;;;;;;;;;;;;-142.75;100.00;78318.69;5032011;28;19913;-65
2023/03/15 06:13:11;;;;;;;;;;;;;;;-142.75;100.00;78318.69;5032083;28;19966;-66
2023/03/15 06:15:36;;;;;;;;;;;;;;;-142.75;100.00;78346.25;5033026;28;19927;-65
2023/03/15 06:18:01;;;;;;;;;;;;;;;-142.75;100.00;78346.25;5046857;28;19913;-66
2023/03/15 06:20:27;;;;;;;;;;;;;;;-142.75;100.00;78338.38;5041981;28;19912;-67
2023/03/15 06:22:52;;;;;;;;;;;;;;;-142.75;100.00;78350.19;5049852;28;20288;-66
2023/03/15 06:25:17;;;;;;;;;;;;;;;-142.75;100.00;78362.00;5052546;28;19919;-66
2023/03/15 06:27:42;;;;;;;;;;;;;;;-142.75;100.00;78365.94;5054897;28;19975;-66
2023/03/15 06:30:08;;;;;;;;;;;;;;;-142.75;100.00;78342.31;5056019;28;19919;-66
2023/03/15 06:32:33;;;;;;;;;;;;;;;-142.75;100.00;78328.53;5055903;28;19917;-66
2023/03/15 06:34:58;;;;;;;;;;;;;;;-142.75;100.00;78334.44;5054693;28;20012;-66
2023/03/15 06:37:23;;;;;;;;;;;;;;;-142.75;100.00;78320.66;5055778;28;20110;-66
2023/03/15 06:39:50;;;;;;;;;;;;;;;-142.75;100.00;78302.94;5055662;28;19913;-66
2023/03/15 06:42:15;;;;;;;;;;;;;;;-142.75;100.00;78302.94;5055768;28;19913;-66
2023/03/15 06:44:40;;;;;;;;;;;;;;;-142.75;100.00;78267.47;5055735;28;19920;-66
2023/03/15 06:47:06;;;;;;;;;;;;;;;-142.75;100.00;78261.56;5055684;28;19917;-66
2023/03/15 06:49:32;;;;;;;;;;;;;;;-142.75;100.00;78255.66;5053973;28;20291;-67
2023/03/15 06:51:57;;;;;;;;;;;;;;;-142.75;100.00;78232.03;5054917;28;19924;-66
2023/03/15 06:54:23;;;;;;;;;;;;;;;-142.75;100.00;78220.22;5055458;28;19916;-66
2023/03/15 06:56:48;;;;;;;;;;;;;;;-142.75;100.00;78235.97;5055451;28;19913;-66
2023/03/15 06:59:13;;;;;;;;;;;;;;;-142.75;100.00;78237.94;5055475;28;19916;-66
2023/03/15 07:01:39;;;;;;;;;;;;;;;-142.75;100.00;78241.88;5055314;28;19912;-67
2023/03/15 07:04:04;;;;;;;;;;;;;;;-142.75;100.00;78186.75;5055193;28;19912;-66
2023/03/15 07:06:30;;;;;;;;;;;;;;;-142.75;100.00;78184.78;5055392;28;19959;-67
2023/03/15 07:08:55;;;;;;;;;;;;;;;-142.75;100.00;78184.78;5055113;28;19944;-66
2023/03/15 07:11:20;;;;;;;;;;;;;;;-142.75;100.00;78165.06;5055285;28;20400;-66
2023/03/15 07:13:45;;;;;;;;;;;;;;;-142.75;100.00;78165.06;5055076;28;19916;-67
2023/03/15 07:16:11;;;;;;;;;;;;;;;-142.75;100.00;78157.19;5053927;28;19958;-67
2023/03/15 07:18:36;;;;;;;;;;;;;;;-142.75;100.00;78145.38;5055133;28;19974;-67
2023/03/15 07:21:02;;;;;;;;;;;;;;;-142.75;100.00;78137.50;5055088;28;20408;-65
2023/03/15 07:23:28;;;;;;;;;;;;;;;-142.75;100.00;78111.91;5054725;28;20042;-67
2023/03/15 07:25:54;;;;;;;;;;;;;;;-142.75;100.00;78111.91;5055023;28;19970;-67
2023/03/15 07:28:19;;;;;;;;;;;;;;;-142.75;100.00;78092.22;5054825;28;19916;-65
2023/03/15 07:30:58;;;;;;;;;;;;;;;-142.75;100.00;78082.38;5054987;28;20402;-66
2023/03/15 07:33:24;;;;;;;;;;;;;;;-142.75;100.00;78082.38;5054823;28;19913;-66
2023/03/15 07:35:49;;;;;;;;;;;;;;;-142.75;100.00;78088.28;5052998;28;19916;-66
2023/03/15 07:38:15;;;;;;;;;;;;;;;-142.75;100.00;78052.81;5054118;28;20280;-67
2023/03/15 07:40:40;;;;;;;;;;;;;;;-142.75;100.00;78021.31;5053503;28;19913;-66
2023/03/15 07:43:05;;;;;;;;;;;;;;;-142.75;100.00;77991.78;5053285;28;19967;-66
2023/03/15 07:45:30;;;;;;;;;;;;;;;-142.75;100.00;78019.34;5054746;28;19922;-66
2023/03/15 07:47:55;;;;;;;;;;;;;;;-142.75;100.00;78007.53;5054387;28;20388;-67
2023/03/15 07:50:21;;;;;;;;;;;;;;;-142.75;100.00;78021.31;5049318;28;20008;-66
2023/03/15 07:52:46;;;;;;;;;;;;;;;-142.75;100.00;78033.13;5053006;28;19919;-66
2023/03/15 07:55:11;;;;;;;;;;;;;;;-142.75;100.00;78033.13;5053977;28;20047;-65
2023/03/15 07:57:37;;;;;;;;;;;;;;;-142.75;100.00;78023.28;5054405;28;19916;-66
2023/03/15 08:00:03;;;;;;;;;;;;;;;-142.75;100.00;77972.09;5054356;28;19913;-66
2023/03/15 08:02:28;;;;;;;;;;;;;;;-142.75;100.00;77970.13;5054160;28;19920;-68
2023/03/15 08:04:53;;;;;;;;;;;;;;;-142.75;100.00;77940.59;5054253;28;20312;-67
2023/03/15 08:07:19;;;;;;;;;;;;;;;-142.75;100.00;77979.97;5035193;28;19916;-64
2023/03/15 08:09:45;;;;;;;;;;;;;;;-142.75;100.00;77942.56;5034330;28;19912;-67
2023/03/15 08:12:10;;;;;;;;;;;;;;;-142.75;100.00;77978.00;5032793;28;19917;-67
2023/03/15 08:14:36;;;;;;;;;;;;;;;-142.75;100.00;77924.84;5043079;28;19917;-67
2023/03/15 08:17:01;;;;;;;;;;;;;;;-142.75;100.00;77891.34;5048232;28;20008;-67
2023/03/15 08:19:26;;;;;;;;;;;;;;;-142.75;100.00;77889.38;5050438;28;19931;-67
2023/03/15 08:21:52;;;;;;;;;;;;;;;-142.75;100.00;77956.34;5041851;28;19912;-65
2023/03/15 08:24:17;;;;;;;;;;;;;;;-142.75;100.00;77944.53;5044296;28;19935;-67
2023/03/15 08:26:43;;;;;;;;;;;;;;;-142.75;100.00;77859.84;5036492;28;20412;-67
2023/03/15 08:29:08;;;;;;;;;;;;;;;-142.75;100.00;77830.31;5041713;28;19909;-67
2023/03/15 08:31:33;;;;;;;;;;;;;;;-142.75;100.00;77881.50;5033545;28;19917;-66
2023/03/15 08:33:58;;;;;;;;;;;;;;;-142.75;100.00;77826.38;5033260;28;19919;-66
2023/03/15 08:36:24;;;;;;;;;;;;;;;-142.75;100.00;77832.28;5033497;28;20003;-67
2023/03/15 08:38:49;;;;;;;;;;;;;;;-142.75;100.00;77810.63;5033337;28;20500;-67
2023/03/15 08:41:15;;;;;;;;;;;;;;;-142.75;100.00;77727.94;5032137;28;20257;-67
2023/03/15 08:43:40;;;;;;;;;;;;;;;-142.75;100.00;77704.28;5042426;28;19931;-67
2023/03/15 08:46:05;;;;;;;;;;;;;;;-142.75;100.00;77645.22;5042380;28;19915;-66
2023/03/15 08:48:30;;;;;;;;;;;;;;;-142.75;100.00;77676.72;5040607;28;20007;-68
2023/03/15 08:51:01;;;;;;;;;;;;;;;-142.75;100.00;77696.41;5038714;28;19935;-67
2023/03/15 08:53:26;;;;;;;;;;;;;;;-142.75;100.00;77714.13;5031859;28;20019;-67
2023/03/15 08:55:51;;;;;;;;;;;;;;;-142.75;100.00;77672.78;5031828;28;20004;-68
2023/03/15 08:58:16;;;;;;;;;;;;;;;-142.75;100.00;77680.66;5033139;28;20019;-67
2023/03/15 09:00:42;;;;;;;;;;;;;;;-142.75;100.00;77659.00;5033244;28;20299;-67
2023/03/15 09:03:07;;;;;;;;;;;;;;;-142.75;95.05;77637.34;5033456;28;19923;-67
2023/03/15 09:05:33;;;;;;;;;;;;;;;-142.75;90.65;77564.50;5031964;28;19929;-68
2023/03/15 09:07:59;;;;;;;;;;;;;;;-142.75;91.05;77655.06;5033009;28;19913;-67
2023/03/15 09:10:24;;;;;;;;;;;;;;;-142.75;87.67;77727.94;5032765;28;20447;-67
2023/03/15 09:12:51;;;;;;;;;;;;;;;-142.75;92.08;77657.03;5032936;28;19917;-65
2023/03/15 09:15:16;;;;;;;;;;;;;;;-142.75;89.48;77621.59;5033041;28;19917;-68
2023/03/15 09:17:41;;;;;;;;;;;;;;;-142.75;88.24;77637.34;5032719;28;19966;-67
2023/03/15 09:20:13;;;;;;;;;;;;;;;-142.75;86.76;77617.66;5031593;28;20032;-68
2023/03/15 09:22:38;;;;;;;;;;;;;;;-142.75;82.46;77617.66;5032769;28;19913;-68
2023/03/15 09:25:04;;;;;;;;;;;;;;;-142.75;81.17;77623.56;5032781;28;20297;-68
2023/03/15 09:27:30;;;;;;;;;;;;;;;-142.75;80.26;77527.09;5031494;28;20007;-67
2023/03/15 09:29:55;;;;;;;;;;;;;;;-142.75;77.24;77527.09;5032731;28;19913;-68
2023/03/15 09:32:20;;;;;;;;;;;;;;;-142.75;70.47;77531.03;5032480;28;20459;-67
2023/03/15 09:34:45;;;;;;;;;;;;;;;-142.75;73.57;77499.53;5031145;28;20008;-65
2023/03/15 09:37:10;;;;;;;;;;;;;;;-142.75;72.63;77556.63;5031422;28;19913;-67
2023/03/15 09:39:37;;;;;;;;;;;;;;;-142.75;74.64;77546.78;5030930;28;20413;-67
2023/03/15 09:42:10;;;;;;;;;;;;;;;-142.75;77.56;77475.91;5038494;28;19971;-66
2023/03/15 09:44:35;;;;;;;;;;;;;;;-142.75;74.78;77430.59;5041038;28;19913;-67
2023/03/15 09:47:08;;;;;;;;;;;;;;;-142.75;70.78;77408.94;5041598;28;19953;-65
2023/03/15 09:49:36;;;;;;;;;;;;;;;-142.75;64.74;77349.88;5040913;28;19943;-65
2023/03/15 09:52:25;;;;;;;;;;;;;;;-142.75;62.64;77353.81;5041028;28;19967;-63
2023/03/15 09:54:53;;;;;;;;;;;;;;;-142.75;67.70;77408.94;5042444;28;20578;-67
2023/03/15 09:57:24;;;;;;;;;;;;;;;-142.75;66.61;77495.59;5040623;28;20285;-67
2023/03/15 09:59:52;;;;;;;;;;;;;;;-142.75;67.75;77466.03;5041079;28;19923;-67
2023/03/15 10:02:22;;;;;;;;;;;;;;;-142.75;68.64;77515.28;5042518;28;19913;-65
2023/03/15 10:04:50;;;;;;;;;;;;;;;-142.75;69.93;77460.13;5041163;28;20308;-67
2023/03/15 10:07:15;;;;;;;;;;;;;;;-142.75;70.17;77393.19;5039925;28;19944;-68
2023/03/15 10:09:42;;;;;;;;;;;;;;;-142.75;68.18;77580.25;5039595;28;20392;-67
2023/03/15 10:12:09;;;;;;;;;;;;;;;-142.75;67.20;77470.00;5039426;28;19913;-68
2023/03/15 10:14:53;;;;;;;;;;;;;;;-142.75;67.70;77477.88;5038704;28;19924;-67
2023/03/15 10:17:43;;;;;;;;;;;;;;;-142.75;65.96;77414.84;5049791;28;20426;-65
2023/03/15 10:20:17;;;;;;;;;;;;;;;-142.75;62.99;77365.63;5037188;28;20402;-67
2023/03/15 10:23:03;;;;;;;;;;;;;;;-142.75;60.59;77320.34;5044199;28;19940;-67
2023/03/15 10:25:29;;;;;;;;;;;;;;;-142.75;58.96;77302.63;5037509;28;19917;-67
2023/03/15 10:27:59;;;;;;;;;;;;;;;-142.75;57.22;77298.69;5051402;28;20364;-67
2023/03/15 10:30:26;;;;;;;;;;;;;;;-142.75;58.44;77318.38;5046242;28;19987;-67
2023/03/15 10:32:56;;;;;;;;;;;;;;;-142.75;60.19;77507.41;5042787;28;20398;-66
2023/03/15 10:35:21;;;;;;;;;;;;;;;-142.75;60.25;77536.94;5040016;28;19925;-67
2023/03/15 10:37:47;;;;;;;;;;;;;;;-142.75;64.03;77554.66;5041949;28;19923;-68
2023/03/15 10:40:15;;;;;;;;;;;;;;;-142.75;71.41;77568.44;5041666;28;20009;-66
2023/03/15 10:42:41;;;;;;;;;;;;;;;-142.75;64.72;77477.88;5038678;28;19912;-67
2023/03/15 10:45:32;;;;;;;;;;;;;;;-142.75;55.66;77536.94;5040559;28;20019;-67
2023/03/15 10:47:58;;;;;;;;;;;;;;;-142.75;51.44;77450.28;5050203;28;20015;-67
2023/03/15 10:50:26;;;;;;;;;;;;;;;-142.75;48.72;77426.66;5051609;28;20337;-67
2023/03/15 10:52:54;;;;;;;;;;;;;;;-142.75;43.81;77405.00;5043748;28;20277;-67
2023/03/15 10:55:25;;;;;;;;;;;;;;;-142.75;43.46;77363.66;5040930;28;20257;-67
2023/03/15 10:57:55;;;;;;;;;;;;;;;-142.75;45.78;77324.28;5040683;28;19971;-65
2023/03/15 11:00:28;;;;;;;;;;;;;;;-142.75;46.36;77466.03;5051149;28;19919;-68
2023/03/15 11:03:01;;;;;;;;;;;;;;;-142.75;48.69;77357.75;5039449;28;19924;-67
2023/03/15 11:05:29;;;;;;;;;;;;;;;-142.75;47.50;77365.63;5043249;28;20049;-67
2023/03/15 11:07:56;;;;;;;;;;;;;;;-142.75;46.99;77332.16;5042630;28;19921;-66
2023/03/15 11:10:24;;;;;;;;;;;;;;;-142.75;45.69;77422.72;5038840;28;19921;-66
2023/03/15 11:12:49;;;;;;;;;;;;;;;-142.75;46.03;77359.72;5032876;28;19913;-67
2023/03/15 11:15:15;;;;;;;;;;;;;;;-142.75;45.78;77330.19;5035453;28;19924;-67
2023/03/15 11:17:41;;;;;;;;;;;;;;;-142.75;44.42;77271.13;5035114;28;19913;-67
2023/03/15 11:20:25;;;;;;;;;;;;;;;-142.75;44.29;77280.97;5034907;28;19952;-68
2023/03/15 11:22:52;;;;;;;;;;;;;;;-142.75;51.62;77395.16;5048462;28;19917;-67
2023/03/15 11:25:19;;;;;;;;;;;;;;;-142.75;56.95;77385.31;5047743;28;20462;-67
2023/03/15 11:27:50;;;;;;;;;;;;;;;-142.75;57.16;77523.16;5034863;28;20373;-67
2023/03/15 11:30:16;;;;;;;;;;;;;;;-142.75;54.21;77397.13;5034481;28;19913;-66
2023/03/15 11:32:42;;;;;;;;;;;;;;;-142.75;50.99;77342.00;5043072;28;20464;-68
2023/03/15 11:35:27;;;;;;;;;;;;;;;-142.75;49.76;77310.50;5045370;28;19970;-66
2023/03/15 11:37:52;;;;;;;;;;;;;;;-142.75;46.52;77371.53;5052200;28;19912;-68
2023/03/15 11:40:22;;;;;;;;;;;;;;;-142.75;49.67;77359.72;5054215;28;19974;-67
2023/03/15 11:42:56;;;;;;;;;;;;;;;-142.75;50.00;77405.00;5054676;28;19920;-67
2023/03/15 11:45:26;;;;;;;;;;;;;;;-142.75;49.31;77466.03;5053564;28;19925;-67
2023/03/15 11:47:54;;;;;;;;;;;;;;;-142.75;55.87;77475.91;5053938;28;19923;-67
2023/03/15 11:50:20;;;;;;;;;;;;;;;-142.75;59.98;77487.72;5053336;28;19958;-67
2023/03/15 11:52:49;;;;;;;;;;;;;;;-142.75;57.29;77428.63;5052700;28;19995;-64
2023/03/15 11:55:16;;;;;;;;;;;;;;;-142.75;62.77;77389.25;5052634;28;19921;-68
2023/03/15 11:57:43;;;;;;;;;;;;;;;-142.75;63.36;77391.22;5049904;28;19924;-67
2023/03/15 12:00:15;;;;;;;;;;;;;;;-142.75;59.99;77546.78;5042849;28;20407;-67
2023/03/15 12:02:51;;;;;;;;;;;;;;;-142.75;60.68;77515.28;5042068;28;19917;-67
2023/03/15 12:05:35;;;;;;;;;;;;;;;-142.75;61.86;77481.81;5034329;28;19982;-66
2023/03/15 12:08:19;;;;;;;;;;;;;;;-142.75;55.77;77444.38;5034198;28;19919;-68
2023/03/15 12:10:48;;;;;;;;;;;;;;;-142.75;56.53;77385.31;5034080;28;20015;-68
2023/03/15 12:13:26;;;;;;;;;;;;;;;-142.75;49.45;77375.47;5032684;28;20004;-67
2023/03/15 12:15:52;;;;;;;;;;;;;;;-142.75;56.56;77328.22;5034133;28;20321;-68
2023/03/15 12:18:19;;;;;;;;;;;;;;;-142.75;49.89;77340.03;5034052;28;19920;-67
2023/03/15 12:20:49;;;;;;;;;;;;;;;-142.75;46.45;77389.25;5037028;28;19921;-66